Time;durP1;ratioP1;P1;durP2;ratioP2;P2;SDS_P1;SDS_P2;PMS_P1;PMS_P2;Temp;Humidity;BMP_temperature;BMP_pressure;BME280_temperature;BME280_humidity;BME280_pressure;Samples;Min_cycle;Max_cycle;Signal;HPM_P1;HPM_P2
2023/04/22 00:01:20;;;;;;;18.77;16.90;;;;;;;6.29;100.00;100612.16;4865959;28;20550;-79
2023/04/22 00:03:45;;;;;;;18.50;16.67;;;;;;;6.26;100.00;100618.41;4860064;28;20025;-78
2023/04/22 00:06:12;;;;;;;18.23;16.42;;;;;;;6.25;100.00;100616.69;4856433;28;20030;-79
2023/04/22 00:08:37;;;;;;;19.33;17.33;;;;;;;6.23;100.00;100624.69;4882321;28;20058;-79
2023/04/22 00:11:02;;;;;;;17.20;15.63;;;;;;;6.20;100.00;100623.94;4860311;28;20064;-78
2023/04/22 00:13:28;;;;;;;18.80;16.80;;;;;;;6.04;100.00;100609.53;4859539;28;20479;-78
2023/04/22 00:15:53;;;;;;;18.23;16.42;;;;;;;6.00;100.00;100622.00;4863695;28;20068;-78
2023/04/22 00:18:19;;;;;;;17.05;15.43;;;;;;;5.95;100.00;100626.59;4848959;28;20021;-78
2023/04/22 00:20:44;;;;;;;17.77;15.95;;;;;;;5.86;100.00;100617.19;4951681;28;20029;-78
2023/04/22 00:23:10;;;;;;;16.70;15.18;;;;;;;5.80;100.00;100613.88;4892899;28;20033;-78
2023/04/22 00:25:36;;;;;;;15.88;14.38;;;;;;;5.85;100.00;100612.81;4964969;28;20054;-78
2023/04/22 00:28:01;;;;;;;15.90;14.30;;;;;;;5.95;100.00;100613.38;4941517;28;20548;-79
2023/04/22 00:30:27;;;;;;;15.30;13.73;;;;;;;5.91;100.00;100612.59;4873181;28;20700;-79
2023/04/22 00:32:52;;;;;;;15.75;14.25;;;;;;;5.92;100.00;100616.13;4847733;28;20654;-77
2023/04/22 00:35:17;;;;;;;15.13;13.73;;;;;;;5.93;100.00;100602.84;4850640;29;20576;-78
2023/04/22 00:37:43;;;;;;;14.85;13.52;;;;;;;5.95;100.00;100608.94;4855387;28;20336;-79
2023/04/22 00:40:09;;;;;;;15.13;13.65;;;;;;;5.99;100.00;100618.50;4874949;28;20056;-79
2023/04/22 00:42:36;;;;;;;16.00;14.50;;;;;;;6.03;100.00;100610.47;4848693;28;20038;-79
2023/04/22 00:45:01;;;;;;;17.13;15.52;;;;;;;6.01;100.00;100612.28;4871427;28;20059;-79
2023/04/22 00:47:27;;;;;;;17.92;16.23;;;;;;;6.05;100.00;100609.47;4916215;28;20569;-79
2023/04/22 00:49:53;;;;;;;19.75;17.92;;;;;;;6.03;100.00;100610.47;4851732;28;20121;-78
2023/04/22 00:52:18;;;;;;;19.83;17.92;;;;;;;6.03;100.00;100607.81;4913961;28;20113;-79
2023/04/22 00:54:44;;;;;;;19.77;17.98;;;;;;;6.05;100.00;100612.13;4864457;28;20104;-76
2023/04/22 00:57:09;;;;;;;18.60;16.85;;;;;;;6.08;100.00;100614.66;4865231;28;20111;-78
2023/04/22 00:59:35;;;;;;;17.77;16.20;;;;;;;6.12;100.00;100618.06;4854998;28;20048;-79
2023/04/22 01:02:03;;;;;;;18.55;16.85;;;;;;;6.13;100.00;100615.34;4855753;28;20156;-78
2023/04/22 01:04:28;;;;;;;19.23;17.40;;;;;;;6.12;100.00;100605.72;4856668;28;21576;-77
2023/04/22 01:06:54;;;;;;;18.95;17.25;;;;;;;6.17;100.00;100609.03;4894708;28;20050;-77
2023/04/22 01:09:19;;;;;;;18.88;17.08;;;;;;;6.22;100.00;100607.09;4861455;28;20037;-79
2023/04/22 01:11:48;;;;;;;19.25;17.55;;;;;;;6.23;100.00;100606.19;4849201;28;20072;-78
2023/04/22 01:14:14;;;;;;;18.73;16.92;;;;;;;6.27;100.00;100606.94;4855881;28;20049;-79
2023/04/22 01:16:42;;;;;;;17.58;15.98;;;;;;;6.21;100.00;100596.56;4853137;28;20069;-79
2023/04/22 01:19:10;;;;;;;15.85;14.40;;;;;;;6.24;100.00;100596.47;4879341;28;20026;-78
2023/04/22 01:21:37;;;;;;;17.75;16.15;;;;;;;6.31;100.00;100600.63;4872195;28;20087;-79
2023/04/22 01:24:03;;;;;;;17.45;15.65;;;;;;;6.30;100.00;100593.59;4870366;28;20083;-79
2023/04/22 01:26:29;;;;;;;17.83;16.25;;;;;;;6.36;100.00;100585.44;4858263;28;20030;-78
2023/04/22 01:28:54;;;;;;;16.50;14.90;;;;;;;6.35;100.00;100588.97;4922570;28;20896;-78
2023/04/22 01:31:20;;;;;;;16.98;15.35;;;;;;;6.42;100.00;100594.91;4879334;28;20450;-78
2023/04/22 01:33:47;;;;;;;16.10;14.50;;;;;;;6.38;100.00;100585.38;4862200;28;20037;-78
2023/04/22 01:36:13;;;;;;;16.38;14.80;;;;;;;6.41;100.00;100585.28;4940450;28;20025;-78
2023/04/22 01:38:39;;;;;;;17.88;16.17;;;;;;;6.37;100.00;100581.88;4873764;28;20105;-79
2023/04/22 01:41:05;;;;;;;16.83;15.30;;;;;;;6.41;100.00;100594.06;4864782;28;20105;-78
2023/04/22 01:43:31;;;;;;;17.58;15.98;;;;;;;6.44;100.00;100585.16;4860060;28;20072;-79
2023/04/22 01:45:56;;;;;;;16.67;15.07;;;;;;;6.37;100.00;100597.72;4860834;28;20037;-79
2023/04/22 01:48:22;;;;;;;17.88;16.23;;;;;;;6.40;100.00;100597.63;4856860;28;20564;-79
2023/04/22 01:50:47;;;;;;;18.17;16.48;;;;;;;6.38;100.00;100588.88;4931091;28;20428;-78
2023/04/22 01:53:13;;;;;;;17.17;15.55;;;;;;;6.31;100.00;100587.41;4866484;28;20036;-78
2023/04/22 01:55:39;;;;;;;17.02;15.43;;;;;;;6.37;100.00;100587.16;4886865;28;20060;-79
2023/04/22 01:58:04;;;;;;;17.13;15.63;;;;;;;6.35;100.00;100582.84;4852089;28;20053;-79
2023/04/22 02:00:30;;;;;;;17.50;15.73;;;;;;;6.35;100.00;100580.19;4866207;28;20088;-79
2023/04/22 02:02:56;;;;;;;18.13;16.27;;;;;;;6.36;100.00;100585.44;4860125;28;20025;-78
2023/04/22 02:05:21;;;;;;;18.50;16.63;;;;;;;6.33;100.00;100574.97;4919951;28;20491;-79
2023/04/22 02:07:51;;;;;;;19.30;17.27;;;;;;;6.37;100.00;100584.53;4865117;28;20045;-79
2023/04/22 02:10:16;;;;;;;19.92;17.83;;;;;;;6.37;100.00;100579.22;4848684;28;20029;-78
2023/04/22 02:12:41;;;;;;;18.58;16.77;;;;;;;6.32;100.00;100578.56;4867513;28;20032;-78
2023/04/22 02:15:07;;;;;;;17.73;16.05;;;;;;;6.36;100.00;100581.94;4869010;28;20383;-78
2023/04/22 02:17:34;;;;;;;18.58;16.65;;;;;;;6.28;100.00;100565.50;4900525;28;20433;-79
2023/04/22 02:20:00;;;;;;;18.65;16.73;;;;;;;6.33;100.00;100569.69;4864650;28;20644;-78
2023/04/22 02:22:28;;;;;;;19.42;17.63;;;;;;;6.34;100.00;100575.84;4925335;28;20070;-78
2023/04/22 02:24:53;;;;;;;18.77;16.90;;;;;;;6.37;100.00;100566.00;4895936;28;20040;-78
2023/04/22 02:27:18;;;;;;;19.02;17.27;;;;;;;6.30;100.00;100553.94;4926357;28;20025;-79
2023/04/22 02:29:44;;;;;;;19.15;17.25;;;;;;;6.37;100.00;100558.09;4899021;28;20041;-78
2023/04/22 02:32:10;;;;;;;19.65;17.77;;;;;;;6.34;100.00;100558.19;4851022;28;20049;-79
2023/04/22 02:34:35;;;;;;;20.67;18.77;;;;;;;6.37;100.00;100563.38;4862595;28;20048;-78
2023/04/22 02:37:00;;;;;;;20.95;18.98;;;;;;;6.39;100.00;100556.22;4946234;28;20101;-79
2023/04/22 02:39:26;;;;;;;20.77;18.77;;;;;;;6.39;100.00;100561.50;4852475;28;20055;-79
2023/04/22 02:41:51;;;;;;;21.85;19.77;;;;;;;6.39;100.00;100558.00;4945148;28;20029;-79
2023/04/22 02:44:16;;;;;;;22.33;20.23;;;;;;;6.41;100.00;100562.34;4868009;28;20069;-79
2023/04/22 02:46:42;;;;;;;21.17;19.17;;;;;;;6.41;100.00;100554.41;4855346;29;20032;-79
2023/04/22 02:49:07;;;;;;;22.17;20.08;;;;;;;6.40;100.00;100551.84;4881324;28;20033;-79
2023/04/22 02:51:32;;;;;;;21.48;19.48;;;;;;;6.40;100.00;100552.69;4852174;29;20542;-79
2023/04/22 02:53:59;;;;;;;21.20;19.27;;;;;;;6.43;100.00;100564.91;4859375;28;20051;-79
2023/04/22 02:56:25;;;;;;;22.52;20.33;;;;;;;6.43;100.00;100556.97;4889380;28;20066;-79
2023/04/22 02:58:50;;;;;;;23.00;20.80;;;;;;;6.46;100.00;100557.72;4878547;28;20033;-79
2023/04/22 03:01:16;;;;;;;21.90;19.90;;;;;;;6.48;100.00;100562.97;4857003;28;20395;-78
2023/04/22 03:03:41;;;;;;;22.83;20.65;;;;;;;6.46;100.00;100554.22;4950477;28;20511;-79
2023/04/22 03:06:06;;;;;;;23.63;21.33;;;;;;;6.47;100.00;100564.72;4858576;28;20068;-78
2023/04/22 03:08:32;;;;;;;22.63;20.40;;;;;;;6.43;100.00;100546.41;4905551;28;20149;-78
2023/04/22 03:10:57;;;;;;;21.55;19.52;;;;;;;6.45;100.00;100553.38;4852176;28;20095;-79
2023/04/22 03:13:22;;;;;;;20.92;18.92;;;;;;;6.45;100.00;100545.44;4860615;28;20097;-78
2023/04/22 03:15:48;;;;;;;20.98;19.00;;;;;;;6.44;100.00;100537.56;4863204;28;20037;-79
2023/04/22 03:18:13;;;;;;;20.88;18.95;;;;;;;6.46;100.00;100541.00;4860871;28;20664;-79
2023/04/22 03:20:38;;;;;;;19.65;17.85;;;;;;;6.44;100.00;100532.28;4862517;28;20036;-78
2023/04/22 03:23:05;;;;;;;20.85;18.90;;;;;;;6.47;100.00;100542.72;4879063;28;20168;-79
2023/04/22 03:25:31;;;;;;;21.30;19.38;;;;;;;6.43;100.00;100541.13;4941656;28;20116;-79
2023/04/22 03:27:56;;;;;;;21.58;19.58;;;;;;;6.44;100.00;100527.84;4866776;28;20040;-79
2023/04/22 03:30:21;;;;;;;20.33;18.42;;;;;;;6.43;100.00;100526.09;4866316;28;20121;-78
2023/04/22 03:32:47;;;;;;;20.73;18.75;;;;;;;6.44;100.00;100524.34;4916208;28;20068;-78
2023/04/22 03:35:12;;;;;;;21.27;19.27;;;;;;;6.45;100.00;100524.28;4912407;28;20479;-78
2023/04/22 03:37:38;;;;;;;20.65;18.65;;;;;;;6.40;100.00;100504.25;4876667;28;20120;-78
2023/04/22 03:40:04;;;;;;;19.73;17.83;;;;;;;6.40;100.00;100514.81;4856641;28;20394;-79
2023/04/22 03:42:30;;;;;;;22.30;20.15;;;;;;;6.41;100.00;100506.81;4866823;28;20176;-79
2023/04/22 03:44:55;;;;;;;21.48;19.50;;;;;;;6.38;100.00;100506.94;4859785;28;20108;-78
2023/04/22 03:47:20;;;;;;;20.80;18.90;;;;;;;6.42;100.00;100510.31;4941429;28;20041;-78
2023/04/22 03:49:46;;;;;;;22.08;20.08;;;;;;;6.41;100.00;100504.19;4885192;28;20082;-78
2023/04/22 03:52:11;;;;;;;20.92;18.92;;;;;;;6.35;100.00;100495.59;4859314;28;20105;-79
2023/04/22 03:54:36;;;;;;;21.95;19.90;;;;;;;6.44;100.00;100501.41;4857179;28;20035;-78
2023/04/22 03:57:02;;;;;;;21.98;19.77;;;;;;;6.40;100.00;100493.69;4916966;28;20092;-78
2023/04/22 03:59:27;;;;;;;20.65;18.67;;;;;;;6.45;100.00;100500.50;4852076;28;20572;-79
2023/04/22 04:01:53;;;;;;;23.17;20.88;;;;;;;6.43;100.00;100493.53;4848391;28;20060;-79
2023/04/22 04:04:19;;;;;;;21.83;19.77;;;;;;;6.39;100.00;100479.56;4850934;28;20040;-79
2023/04/22 04:06:45;;;;;;;22.02;19.92;;;;;;;6.41;100.00;100490.97;4850754;28;20437;-79
2023/04/22 04:09:11;;;;;;;21.83;19.83;;;;;;;6.36;100.00;100478.84;4855231;28;20029;-79
2023/04/22 04:11:36;;;;;;;23.48;21.17;;;;;;;6.43;100.00;100478.53;4886887;28;20138;-79
2023/04/22 04:14:02;;;;;;;22.60;20.52;;;;;;;6.41;100.00;100479.53;4850962;28;20033;-78
2023/04/22 04:16:27;;;;;;;21.88;19.98;;;;;;;6.41;100.00;100480.38;4904212;28;20052;-77
2023/04/22 04:18:53;;;;;;;23.65;21.40;;;;;;;6.39;100.00;100476.91;4863065;28;20112;-78
2023/04/22 04:21:18;;;;;;;23.25;21.05;;;;;;;6.41;100.00;100472.44;4894892;28;20058;-79
2023/04/22 04:23:44;;;;;;;23.38;21.10;;;;;;;6.41;100.00;100474.25;4941147;28;20499;-78
2023/04/22 04:26:10;;;;;;;22.35;20.35;;;;;;;6.41;100.00;100472.44;4887201;28;20538;-78
2023/04/22 04:28:35;;;;;;;22.75;20.65;;;;;;;6.42;100.00;100475.94;4864344;28;20117;-79
2023/04/22 04:31:04;;;;;;;22.38;20.27;;;;;;;6.42;100.00;100481.25;4856428;28;20033;-79
2023/04/22 04:33:31;;;;;;;23.05;20.80;;;;;;;6.43;100.00;100488.25;4863727;28;20029;-78
2023/04/22 04:35:57;;;;;;;22.92;20.88;;;;;;;6.40;100.00;100485.75;4873225;28;20132;-79
2023/04/22 04:38:23;;;;;;;23.33;21.13;;;;;;;6.37;100.00;100484.06;4889499;28;20029;-78
2023/04/22 04:40:50;;;;;;;23.50;21.35;;;;;;;6.33;100.00;100482.47;4862774;28;20033;-78
2023/04/22 04:43:16;;;;;;;24.02;21.63;;;;;;;6.33;100.00;100492.19;4860898;28;20218;-79
2023/04/22 04:45:45;;;;;;;24.38;22.08;;;;;;;6.32;100.00;100480.75;4854007;28;20105;-79
2023/04/22 04:48:13;;;;;;;24.35;22.05;;;;;;;6.38;100.00;100491.06;4921834;28;20743;-78
2023/04/22 04:50:39;;;;;;;23.85;21.58;;;;;;;6.38;100.00;100493.72;4861303;28;20083;-78
2023/04/22 04:53:04;;;;;;;23.80;21.63;;;;;;;6.43;100.00;100493.53;4928658;28;20437;-78
2023/04/22 04:55:29;;;;;;;24.42;22.23;;;;;;;6.43;100.00;100489.09;4914488;28;20092;-79
2023/04/22 04:57:55;;;;;;;23.33;21.23;;;;;;;6.47;100.00;100490.69;4875984;28;20030;-78
2023/04/22 05:00:20;;;;;;;23.65;21.45;;;;;;;6.47;100.00;100489.84;4886679;28;20571;-79
2023/04/22 05:02:45;;;;;;;23.92;21.60;;;;;;;6.49;100.00;100490.66;4861642;28;20537;-80
2023/04/22 05:05:11;;;;;;;23.15;20.95;;;;;;;6.51;100.00;100490.59;4864620;28;20039;-79
2023/04/22 05:07:36;;;;;;;22.38;20.27;;;;;;;6.52;100.00;100489.66;4869121;28;20025;-77
2023/04/22 05:10:02;;;;;;;22.48;20.38;;;;;;;6.48;100.00;100484.50;4906835;28;20063;-78
2023/04/22 05:12:28;;;;;;;23.55;21.45;;;;;;;6.51;100.00;100483.50;4859303;28;20718;-78
2023/04/22 05:14:53;;;;;;;23.67;21.48;;;;;;;6.55;100.00;100492.19;4857995;28;20033;-79
2023/04/22 05:17:19;;;;;;;23.20;21.02;;;;;;;6.52;100.00;100473.78;4860888;28;20047;-79
2023/04/22 05:19:45;;;;;;;22.77;20.58;;;;;;;6.56;100.00;100463.03;4892594;28;20048;-79
2023/04/22 05:22:11;;;;;;;22.75;20.65;;;;;;;6.56;100.00;100472.75;4891515;28;20056;-78
2023/04/22 05:24:36;;;;;;;23.88;21.63;;;;;;;6.58;100.00;100486.78;4917887;28;20100;-79
2023/04/22 05:27:02;;;;;;;22.92;20.75;;;;;;;6.63;100.00;100485.66;4898460;28;20032;-79
2023/04/22 05:29:27;;;;;;;22.95;20.83;;;;;;;6.65;100.00;100475.91;4928602;28;20033;-77
2023/04/22 05:31:53;;;;;;;24.02;21.83;;;;;;;6.77;100.00;100478.94;4884110;28;20084;-77
2023/04/22 05:34:18;;;;;;;24.27;22.00;;;;;;;6.86;100.00;100476.81;4849010;28;20022;-79
2023/04/22 05:36:44;;;;;;;25.17;22.88;;;;;;;6.92;100.00;100480.97;4873985;28;20388;-79
2023/04/22 05:39:09;;;;;;;25.10;22.70;;;;;;;6.93;100.00;100478.25;4870466;28;20036;-78
2023/04/22 05:41:34;;;;;;;23.75;21.45;;;;;;;7.07;100.00;100483.00;4913410;28;20094;-78
2023/04/22 05:44:00;;;;;;;24.77;22.52;;;;;;;7.08;100.00;100478.56;4934580;28;20029;-79
2023/04/22 05:46:25;;;;;;;24.70;22.38;;;;;;;7.22;100.00;100476.16;4847202;29;20040;-78
2023/04/22 05:48:50;;;;;;;23.80;21.63;;;;;;;7.31;100.00;100486.34;4943199;28;20129;-79
2023/04/22 05:51:16;;;;;;;25.58;23.38;;;;;;;7.45;100.00;100481.34;4883111;28;20032;-78
2023/04/22 05:53:41;;;;;;;24.35;22.17;;;;;;;7.58;100.00;100486.97;4863049;28;20501;-78
2023/04/22 05:56:07;;;;;;;22.00;20.10;;;;;;;7.67;100.00;100485.69;4860543;28;20042;-79
2023/04/22 05:58:32;;;;;;;21.55;19.65;;;;;;;7.68;100.00;100475.00;4863241;28;20033;-79
2023/04/22 06:00:57;;;;;;;21.35;19.35;;;;;;;7.77;100.00;100472.88;4900007;28;20461;-79
2023/04/22 06:03:23;;;;;;;20.45;18.65;;;;;;;7.86;100.00;100468.06;4849282;28;20125;-78
2023/04/22 06:05:48;;;;;;;20.45;18.60;;;;;;;7.97;100.00;100468.41;4852416;28;20402;-79
2023/04/22 06:08:13;;;;;;;21.83;19.83;;;;;;;8.33;100.00;100466.75;4860793;28;20591;-78
2023/04/22 06:10:39;;;;;;;20.83;18.90;;;;;;;8.50;100.00;100466.00;4858590;28;20028;-79
2023/04/22 06:13:04;;;;;;;18.65;16.92;;;;;;;8.66;100.00;100477.59;4923312;28;20113;-80
2023/04/22 06:15:29;;;;;;;18.27;16.58;;;;;;;8.77;100.00;100477.03;4898771;28;20037;-80
2023/04/22 06:17:55;;;;;;;18.55;16.95;;;;;;;8.79;100.00;100473.38;4855356;28;20032;-78
2023/04/22 06:20:20;;;;;;;17.63;16.05;;;;;;;8.87;100.00;100483.63;4865155;28;20695;-78
2023/04/22 06:22:46;;;;;;;17.77;16.25;;;;;;;8.94;100.00;100475.25;4934939;28;20033;-78
2023/04/22 06:25:12;;;;;;;19.05;17.05;;;;;;;9.04;100.00;100470.38;4867837;28;20267;-78
2023/04/22 06:27:37;;;;;;;18.42;16.80;;;;;;;9.09;100.00;100468.34;4862748;28;20080;-79
2023/04/22 06:30:04;;;;;;;18.58;16.85;;;;;;;9.24;100.00;100487.94;4862939;28;20103;-79
2023/04/22 06:32:29;;;;;;;17.15;15.65;;;;;;;9.40;100.00;100486.19;4859108;28;20049;-78
2023/04/22 06:34:54;;;;;;;19.30;17.33;;;;;;;9.68;100.00;100466.16;4886121;28;20042;-78
2023/04/22 06:37:20;;;;;;;15.13;13.65;;;;;;;9.83;100.00;100457.38;4862324;28;20033;-77
2023/04/22 06:39:45;;;;;;;15.65;14.23;;;;;;;10.07;100.00;100456.97;4860350;28;20753;-79
2023/04/22 06:42:10;;;;;;;15.60;14.10;;;;;;;10.34;100.00;100463.47;4857239;28;20061;-79
2023/04/22 06:44:35;;;;;;;15.63;13.52;;;;;;;10.45;100.00;100445.09;4856179;28;20036;-77
2023/04/22 06:47:01;;;;;;;14.38;13.07;;;;;;;10.66;100.00;100448.34;4861535;28;20057;-77
2023/04/22 06:49:26;;;;;;;14.45;12.90;;;;;;;10.83;100.00;100460.69;4869154;28;20128;-78
2023/04/22 06:51:51;;;;;;;14.68;13.15;;;;;;;10.94;100.00;100457.38;4860376;28;20112;-80
2023/04/22 06:54:17;;;;;;;15.57;13.98;;;;;;;11.09;100.00;100460.97;4861065;28;20029;-78
2023/04/22 06:56:42;;;;;;;13.88;12.57;;;;;;;11.08;100.00;100449.47;4887706;28;20037;-78
2023/04/22 06:59:07;;;;;;;13.55;12.25;;;;;;;11.24;100.00;100449.38;4918086;28;20034;-78
2023/04/22 07:01:33;;;;;;;13.55;12.25;;;;;;;11.37;100.00;100445.06;4860281;28;20043;-78
2023/04/22 07:03:58;;;;;;;14.13;12.82;;;;;;;11.52;100.00;100447.72;4879344;28;20033;-78
2023/04/22 07:06:24;;;;;;;14.80;13.35;;;;;;;11.92;100.00;100447.00;4847409;29;20053;-79
2023/04/22 07:08:49;;;;;;;12.93;11.80;;;;;;;12.24;100.00;100443.25;4865447;28;20575;-78
2023/04/22 07:11:14;;;;;;;13.98;12.65;;;;;;;12.57;100.00;100451.72;4853923;28;20049;-77
2023/04/22 07:13:40;;;;;;;12.98;11.68;;;;;;;13.16;100.00;100443.34;4872492;28;20105;-78
2023/04/22 07:16:05;;;;;;;13.02;11.73;;;;;;;13.72;100.00;100443.97;4928842;28;20037;-79
2023/04/22 07:18:31;;;;;;;11.82;10.63;;;;;;;14.13;96.64;100432.16;4928760;28;20080;-78
2023/04/22 07:20:56;;;;;;;12.50;10.27;;;;;;;14.62;96.44;100424.06;4862492;28;20052;-77
2023/04/22 07:23:21;;;;;;;10.60;9.60;;;;;;;14.70;93.07;100436.91;4857031;28;20105;-78
2023/04/22 07:25:47;;;;;;;11.77;10.27;;;;;;;14.44;93.71;100439.66;4849238;28;20867;-79
2023/04/22 07:28:12;;;;;;;11.82;10.50;;;;;;;14.00;95.74;100436.66;4847727;28;20118;-80
2023/04/22 07:30:38;;;;;;;11.13;9.75;;;;;;;13.84;96.04;100445.78;4934474;28;20034;-79
2023/04/22 07:33:03;;;;;;;11.38;10.25;;;;;;;14.29;98.99;100440.75;4860800;28;20059;-79
2023/04/22 07:35:29;;;;;;;10.60;9.60;;;;;;;14.61;94.63;100445.63;4858806;28;20178;-79
2023/04/22 07:37:55;;;;;;;11.10;10.10;;;;;;;15.01;93.28;100445.34;4924238;28;20494;-79
2023/04/22 07:40:20;;;;;;;12.10;9.30;;;;;;;15.24;87.52;100439.06;4849702;29;20033;-79
2023/04/22 07:42:46;;;;;;;12.20;9.73;;;;;;;15.14;88.47;100446.09;4919718;28;20638;-79
2023/04/22 07:45:11;;;;;;;12.77;10.10;;;;;;;15.62;88.81;100446.81;4941447;28;20030;-79
2023/04/22 07:47:37;;;;;;;10.20;9.15;;;;;;;16.03;85.17;100447.25;4888453;28;20029;-79
2023/04/22 07:50:03;;;;;;;9.93;8.93;;;;;;;15.81;84.52;100454.31;4868496;28;20033;-79
2023/04/22 07:52:28;;;;;;;10.77;9.48;;;;;;;15.41;84.03;100443.97;4961866;28;20068;-79
2023/04/22 07:54:55;;;;;;;10.15;9.13;;;;;;;15.17;85.58;100429.75;4851658;28;20025;-80
2023/04/22 07:57:21;;;;;;;10.20;9.05;;;;;;;14.97;85.79;100433.13;4854789;28;20065;-79
2023/04/22 07:59:48;;;;;;;10.32;9.32;;;;;;;15.06;86.46;100435.13;4853163;29;20029;-78
2023/04/22 08:02:13;;;;;;;11.10;9.82;;;;;;;15.38;88.08;100433.50;4953347;28;20076;-79
2023/04/22 08:04:39;;;;;;;11.48;9.63;;;;;;;15.72;84.68;100425.53;4932991;28;20062;-80
2023/04/22 08:07:04;;;;;;;11.52;10.27;;;;;;;15.91;80.67;100420.38;4855513;28;20032;-79
2023/04/22 08:09:29;;;;;;;10.90;9.75;;;;;;;15.81;81.13;100413.22;4858655;28;20059;-79
2023/04/22 08:11:55;;;;;;;10.23;9.32;;;;;;;15.92;82.01;100416.72;4854707;28;20487;-80
2023/04/22 08:14:20;;;;;;;10.20;9.30;;;;;;;16.26;81.48;100411.34;4910246;28;20023;-79
2023/04/22 08:16:46;;;;;;;10.63;9.57;;;;;;;16.74;80.31;100408.28;4885675;28;20437;-79
2023/04/22 08:19:11;;;;;;;10.18;9.18;;;;;;;16.96;78.07;100404.66;4849068;28;20038;-79
2023/04/22 08:21:37;;;;;;;11.88;9.55;;;;;;;17.34;76.41;100409.44;4867588;28;20139;-80
2023/04/22 08:24:02;;;;;;;9.25;8.35;;;;;;;18.11;74.16;100397.38;4910731;28;20510;-80
2023/04/22 08:26:28;;;;;;;8.77;7.95;;;;;;;18.80;70.80;100400.06;4891410;28;20059;-79
2023/04/22 08:28:53;;;;;;;9.43;8.43;;;;;;;18.76;70.36;100398.63;4915601;28;20081;-81
2023/04/22 08:31:18;;;;;;;9.35;8.45;;;;;;;18.58;67.50;100406.53;4866735;28;20506;-80
2023/04/22 08:33:44;;;;;;;10.18;8.73;;;;;;;18.58;69.42;100395.75;4856623;29;20554;-80
2023/04/22 08:36:10;;;;;;;8.90;8.00;;;;;;;18.97;67.72;100392.25;4850544;28;20478;-80
2023/04/22 08:38:36;;;;;;;8.65;7.82;;;;;;;19.92;66.15;100392.16;4867737;28;20047;-80
2023/04/22 08:41:04;;;;;;;8.63;7.72;;;;;;;20.73;63.38;100384.13;4864597;28;20048;-79
2023/04/22 08:43:31;;;;;;;8.35;7.55;;;;;;;21.24;60.36;100382.56;4925924;28;20042;-79
2023/04/22 08:45:57;;;;;;;7.43;6.72;;;;;;;22.08;59.55;100371.03;4862523;28;20048;-81
2023/04/22 08:48:22;;;;;;;7.45;6.80;;;;;;;22.61;53.92;100366.25;4863206;29;20704;-79
2023/04/22 08:50:49;;;;;;;8.35;7.55;;;;;;;22.92;54.05;100363.78;4858832;28;20025;-79
2023/04/22 08:53:14;;;;;;;7.32;6.50;;;;;;;23.50;50.67;100348.25;4860479;28;20467;-81
2023/04/22 08:55:43;;;;;;;7.20;6.50;;;;;;;24.18;50.67;100360.41;4865481;28;20100;-80
2023/04/22 08:58:09;;;;;;;7.22;6.53;;;;;;;24.75;47.49;100368.25;4861003;28;20037;-80
2023/04/22 09:00:35;;;;;;;7.47;6.78;;;;;;;25.37;47.86;100368.06;4866954;28;20052;-80
2023/04/22 09:03:02;;;;;;;6.90;6.20;;;;;;;25.58;45.98;100354.56;4863252;28;20559;-80
2023/04/22 09:05:28;;;;;;;6.63;6.00;;;;;;;25.87;45.68;100362.94;4858100;28;20042;-80
2023/04/22 09:07:54;;;;;;;6.10;5.50;;;;;;;25.37;43.73;100378.94;4859786;28;20032;-79
2023/04/22 09:10:19;;;;;;;6.32;5.78;;;;;;;24.67;46.83;100380.03;4862158;28;20387;-79
2023/04/22 09:12:47;;;;;;;7.47;6.35;;;;;;;23.99;47.42;100370.69;4865228;28;20525;-80
2023/04/22 09:15:12;;;;;;;6.22;5.63;;;;;;;24.00;45.01;100379.72;4864015;29;20025;-81
2023/04/22 09:17:38;;;;;;;6.75;6.15;;;;;;;24.07;46.46;100369.81;4859169;29;20039;-80
2023/04/22 09:20:05;;;;;;;7.40;6.10;;;;;;;23.98;47.00;100371.72;4862968;29;20025;-80
2023/04/22 09:22:40;;;;;;;7.30;5.63;;;;;;;24.10;48.41;100367.59;4940127;28;20124;-79
2023/04/22 09:25:16;;;;;;;6.70;6.10;;;;;;;24.47;44.80;100371.50;4863904;29;20036;-80
2023/04/22 09:27:41;;;;;;;6.57;5.88;;;;;;;24.85;44.03;100364.25;4859484;28;20033;-80
2023/04/22 09:30:08;;;;;;;6.68;6.07;;;;;;;25.85;44.23;100359.56;4860801;28;20356;-79
2023/04/22 09:32:34;;;;;;;6.80;6.20;;;;;;;26.77;41.94;100355.22;4876586;28;20053;-80
2023/04/22 09:35:00;;;;;;;6.93;6.25;;;;;;;27.64;39.11;100354.03;4863677;28;20487;-80
2023/04/22 09:37:26;;;;;;;6.90;6.30;;;;;;;27.70;39.14;100355.09;4859642;28;20805;-80
2023/04/22 09:39:52;;;;;;;6.88;6.05;;;;;;;27.80;36.86;100351.00;4941336;28;20083;-79
2023/04/22 09:42:19;;;;;;;6.68;6.07;;;;;;;27.80;36.52;100363.84;4866861;28;20032;-80
2023/04/22 09:44:47;;;;;;;6.10;5.60;;;;;;;27.74;36.10;100353.69;4861719;28;20577;-78
2023/04/22 09:47:13;;;;;;;7.65;5.70;;;;;;;28.38;37.29;100357.97;4915749;28;21517;-79
2023/04/22 09:49:38;;;;;;;5.90;5.40;;;;;;;29.08;34.95;100367.59;4858893;28;20088;-81
2023/04/22 09:52:04;;;;;;;6.07;5.57;;;;;;;29.14;34.96;100368.69;4865866;28;20029;-80
2023/04/22 09:54:29;;;;;;;5.88;5.38;;;;;;;28.89;34.20;100363.78;4862035;28;20037;-81
2023/04/22 09:56:55;;;;;;;7.07;5.40;;;;;;;28.18;35.49;100368.84;4862670;28;20033;-80
2023/04/22 09:59:26;;;;;;;6.65;5.80;;;;;;;28.19;37.08;100354.94;4902483;28;20032;-80
2023/04/22 10:01:55;;;;;;;6.47;5.88;;;;;;;28.32;35.25;100359.63;4858658;28;20043;-81
2023/04/22 10:04:21;;;;;;;6.30;5.72;;;;;;;28.94;35.89;100360.41;4861282;28;20037;-80
2023/04/22 10:06:48;;;;;;;6.60;6.00;;;;;;;29.25;34.34;100366.13;4860259;28;20041;-82
2023/04/22 10:09:16;;;;;;;6.70;5.70;;;;;;;29.41;33.37;100364.84;4855807;28;20025;-79
2023/04/22 10:11:44;;;;;;;6.32;5.72;;;;;;;29.44;32.91;100364.41;4902660;28;20129;-79
2023/04/22 10:14:10;;;;;;;6.07;5.43;;;;;;;28.93;34.66;100366.94;4873571;28;20030;-80
2023/04/22 10:16:38;;;;;;;5.90;5.43;;;;;;;27.31;35.44;100376.50;4948459;28;20038;-81
2023/04/22 10:19:06;;;;;;;5.25;4.75;;;;;;;25.71;37.98;100378.44;4859403;28;20120;-80
2023/04/22 10:21:32;;;;;;;6.10;5.50;;;;;;;24.34;41.29;100376.66;4865496;28;20478;-81
2023/04/22 10:23:58;;;;;;;4.97;4.57;;;;;;;22.96;43.51;100365.13;4854440;28;20033;-81
2023/04/22 10:26:42;;;;;;;5.72;4.93;;;;;;;22.45;46.29;100372.53;4863480;29;20043;-78
2023/04/22 10:29:12;;;;;;;6.10;5.47;;;;;;;22.37;46.36;100365.22;4953532;28;20032;-82
2023/04/22 10:31:38;;;;;;;5.78;5.00;;;;;;;23.48;44.82;100372.03;4863473;28;20421;-82
2023/04/22 10:34:13;;;;;;;5.60;5.10;;;;;;;24.67;41.59;100361.00;4863893;29;20036;-79
2023/04/22 10:37:18;;;;;;;5.35;4.85;;;;;;;26.23;40.96;100350.19;4904695;29;20033;-80
2023/04/22 10:40:14;;;;;;;7.25;5.07;;;;;;;26.62;40.03;100346.22;4890501;29;20053;-81
2023/04/22 10:42:40;;;;;;;6.10;4.97;;;;;;;27.33;36.21;100326.28;4946391;28;20474;-81
2023/04/22 10:45:06;;;;;;;6.93;4.95;;;;;;;27.62;35.34;100328.75;4867828;28;20045;-80
2023/04/22 10:47:34;;;;;;;5.55;4.88;;;;;;;26.65;37.16;100343.13;4868077;28;20041;-80
2023/04/22 10:50:15;;;;;;;5.25;4.57;;;;;;;25.27;40.71;100348.41;4873949;28;20051;-81
2023/04/22 10:52:43;;;;;;;6.00;4.70;;;;;;;23.73;41.88;100349.22;4864663;28;20119;-81
2023/04/22 10:55:08;;;;;;;5.95;5.07;;;;;;;22.45;44.21;100356.25;4851707;29;20029;-81
2023/04/22 10:57:42;;;;;;;6.05;5.45;;;;;;;21.57;47.85;100361.13;4853986;29;20044;-80
2023/04/22 11:00:20;;;;;;;5.80;5.20;;;;;;;20.83;49.40;100365.16;4907594;28;20029;-80
2023/04/22 11:03:04;;;;;;;6.60;5.47;;;;;;;20.04;50.43;100355.84;4861233;28;20132;-80
2023/04/22 11:05:30;;;;;;;6.85;5.13;;;;;;;19.44;53.26;100363.50;4939441;28;20041;-77
2023/04/22 11:08:02;;;;;;;6.10;5.50;;;;;;;19.08;54.85;100362.44;4875317;29;20056;-82
2023/04/22 11:10:42;;;;;;;6.85;5.63;;;;;;;18.72;55.23;100362.16;4865112;28;20041;-80